Time;durP1;ratioP1;P1;durP2;ratioP2;P2;SDS_P1;SDS_P2;PMS_P1;PMS_P2;Temp;Humidity;BMP_temperature;BMP_pressure;BME280_temperature;BME280_humidity;BME280_pressure;Samples;Min_cycle;Max_cycle;Signal;HPM_P1;HPM_P2
2023/03/04 00:02:14;;;;;;;;;;;4.80;95.70;;;;;;5126537;27;19919;-62
2023/03/04 00:04:40;;;;;;;;;;;4.80;94.10;;;;;;5133962;27;20285;-62
2023/03/04 00:07:05;;;;;;;;;;;4.70;94.20;;;;;;5139992;27;19907;-62
2023/03/04 00:09:31;;;;;;;;;;;4.80;96.30;;;;;;5131289;27;19912;-62
2023/03/04 00:11:56;;;;;;;;;;;4.70;94.00;;;;;;5123929;27;19918;-62
2023/03/04 00:14:22;;;;;;;;;;;4.70;93.70;;;;;;5129407;27;19915;-62
2023/03/04 00:16:48;;;;;;;;;;;4.70;92.70;;;;;;5128390;27;19919;-62
2023/03/04 00:19:14;;;;;;;;;;;4.60;93.90;;;;;;5128154;27;20449;-62
2023/03/04 00:21:39;;;;;;;;;;;4.60;93.20;;;;;;5125544;27;19919;-62
2023/03/04 00:24:05;;;;;;;;;;;4.70;96.90;;;;;;5128791;27;19911;-62
2023/03/04 00:26:31;;;;;;;;;;;4.60;97.10;;;;;;5125568;27;19916;-62
2023/03/04 00:28:57;;;;;;;;;;;4.60;93.50;;;;;;5123705;27;19920;-63
2023/03/04 00:31:22;;;;;;;;;;;4.60;96.60;;;;;;5124589;27;19919;-62
2023/03/04 00:33:48;;;;;;;;;;;4.50;94.40;;;;;;5127997;27;19908;-62
2023/03/04 00:36:14;;;;;;;;;;;4.50;95.90;;;;;;5120061;28;19998;-62
2023/03/04 00:38:39;;;;;;;;;;;4.50;94.30;;;;;;5119765;28;19908;-62
2023/03/04 00:41:05;;;;;;;;;;;4.50;94.20;;;;;;5119799;28;19908;-62
2023/03/04 00:43:31;;;;;;;;;;;4.40;94.40;;;;;;5119713;28;19908;-62
2023/03/04 00:45:56;;;;;;;;;;;4.40;93.30;;;;;;5120100;28;19915;-62
2023/03/04 00:48:22;;;;;;;;;;;4.40;96.90;;;;;;5119469;28;19956;-62
2023/03/04 00:50:48;;;;;;;;;;;4.40;94.60;;;;;;5119596;28;19914;-62
2023/03/04 00:53:13;;;;;;;;;;;4.40;98.00;;;;;;5119867;28;20279;-62
2023/03/04 00:55:39;;;;;;;;;;;4.40;98.10;;;;;;5119957;28;19911;-62
2023/03/04 00:58:05;;;;;;;;;;;4.30;95.20;;;;;;5119360;28;19908;-62
2023/03/04 01:00:30;;;;;;;;;;;4.30;98.00;;;;;;5119160;28;19974;-63
2023/03/04 01:02:56;;;;;;;;;;;4.30;97.90;;;;;;5131028;27;19919;-62
2023/03/04 01:05:22;;;;;;;;;;;4.20;99.90;;;;;;5119229;28;19915;-62
2023/03/04 01:07:47;;;;;;;;;;;4.20;99.90;;;;;;5118648;28;20374;-62
2023/03/04 01:10:13;;;;;;;;;;;4.20;97.00;;;;;;5119300;28;19918;-62
2023/03/04 01:12:40;;;;;;;;;;;4.20;98.00;;;;;;5100877;28;19908;-62
2023/03/04 01:15:06;;;;;;;;;;;4.20;97.90;;;;;;5119388;28;19908;-62
2023/03/04 01:17:32;;;;;;;;;;;4.10;99.90;;;;;;5118997;28;19973;-62
2023/03/04 01:19:57;;;;;;;;;;;4.10;95.90;;;;;;5119017;28;19911;-62
2023/03/04 01:22:23;;;;;;;;;;;4.10;99.90;;;;;;5119228;28;19911;-62
2023/03/04 01:24:49;;;;;;;;;;;4.10;97.50;;;;;;5118991;28;19911;-62
2023/03/04 01:27:15;;;;;;;;;;;4.00;99.30;;;;;;5118931;28;19911;-62
2023/03/04 01:29:40;;;;;;;;;;;4.00;99.90;;;;;;5118486;28;20391;-62
2023/03/04 01:32:06;;;;;;;;;;;4.10;99.90;;;;;;5119080;28;19995;-62
2023/03/04 01:34:31;;;;;;;;;;;4.00;99.90;;;;;;5119263;28;19915;-62
2023/03/04 01:36:57;;;;;;;;;;;4.00;99.90;;;;;;5119195;28;19908;-62
2023/03/04 01:39:23;;;;;;;;;;;4.10;99.90;;;;;;5118725;28;19937;-62
2023/03/04 01:41:48;;;;;;;;;;;4.10;99.90;;;;;;5118915;28;19955;-62
2023/03/04 01:44:14;;;;;;;;;;;4.10;99.90;;;;;;5119148;28;20351;-62
2023/03/04 01:46:42;;;;;;;;;;;4.10;99.20;;;;;;5118723;28;19916;-62
2023/03/04 01:49:10;;;;;;;;;;;4.00;98.00;;;;;;5118808;28;19911;-62
2023/03/04 01:51:36;;;;;;;;;;;4.00;99.90;;;;;;5118454;28;20271;-62
2023/03/04 01:54:01;;;;;;;;;;;4.00;99.50;;;;;;5125252;28;19919;-62
2023/03/04 01:56:28;;;;;;;;;;;4.00;99.90;;;;;;5123225;28;19933;-62
2023/03/04 01:59:14;;;;;;;;;;;4.00;99.90;;;;;;5119044;28;20274;-62
2023/03/04 02:01:42;;;;;;;;;;;4.00;99.90;;;;;;5118567;28;19955;-62
2023/03/04 02:04:08;;;;;;;;;;;4.00;99.90;;;;;;5118803;28;19908;-62
2023/03/04 02:06:38;;;;;;;;;;;4.00;99.90;;;;;;5118476;28;20260;-62
2023/03/04 02:09:03;;;;;;;;;;;4.00;99.90;;;;;;5118703;28;19916;-62
2023/03/04 02:11:29;;;;;;;;;;;4.00;99.90;;;;;;5118494;28;19908;-62
2023/03/04 02:13:55;;;;;;;;;;;4.00;99.90;;;;;;5118463;28;20331;-63
2023/03/04 02:16:20;;;;;;;;;;;4.00;99.90;;;;;;5118773;28;19912;-62
2023/03/04 02:18:46;;;;;;;;;;;4.00;99.90;;;;;;5121251;28;19908;-62
2023/03/04 02:21:14;;;;;;;;;;;4.00;99.90;;;;;;5122688;28;19908;-62
2023/03/04 02:23:56;;;;;;;;;;;4.00;99.90;;;;;;5122472;28;19950;-62
2023/03/04 02:26:28;;;;;;;;;;;3.90;99.90;;;;;;5122868;28;19912;-62
2023/03/04 02:28:55;;;;;;;;;;;3.90;99.90;;;;;;5122125;28;19951;-62
2023/03/04 02:31:30;;;;;;;;;;;3.80;99.90;;;;;;5122491;28;19915;-62
2023/03/04 02:33:57;;;;;;;;;;;3.80;99.90;;;;;;5122268;28;19940;-62
2023/03/04 02:36:23;;;;;;;;;;;3.80;99.90;;;;;;5122302;28;19908;-62
2023/03/04 02:38:50;;;;;;;;;;;3.80;99.90;;;;;;5122622;28;19908;-62
2023/03/04 02:41:17;;;;;;;;;;;3.80;99.90;;;;;;5122333;28;20376;-62
2023/03/04 02:43:45;;;;;;;;;;;3.80;99.90;;;;;;5122346;28;19908;-62
2023/03/04 02:46:11;;;;;;;;;;;3.80;99.90;;;;;;5121978;28;19998;-62
2023/03/04 02:48:37;;;;;;;;;;;3.80;99.90;;;;;;5122082;28;19951;-62
2023/03/04 02:51:03;;;;;;;;;;;3.80;99.90;;;;;;5121907;28;19908;-62
2023/03/04 02:53:28;;;;;;;;;;;3.70;99.90;;;;;;5122370;28;20010;-62
2023/03/04 02:55:54;;;;;;;;;;;3.70;99.90;;;;;;5122007;28;20017;-62
2023/03/04 02:58:19;;;;;;;;;;;3.70;99.90;;;;;;5114061;28;19915;-62
2023/03/04 03:00:45;;;;;;;;;;;3.70;99.90;;;;;;5123809;27;20401;-62
2023/03/04 03:03:11;;;;;;;;;;;3.70;99.90;;;;;;5142747;27;20278;-62
2023/03/04 03:05:37;;;;;;;;;;;3.70;99.90;;;;;;5142219;27;20692;-62
2023/03/04 03:08:03;;;;;;;;;;;3.70;99.90;;;;;;5142219;27;19953;-62
2023/03/04 03:10:28;;;;;;;;;;;3.70;99.90;;;;;;5142501;27;19911;-62
2023/03/04 03:12:54;;;;;;;;;;;3.70;99.90;;;;;;5141852;27;19907;-62
2023/03/04 03:15:20;;;;;;;;;;;3.70;99.90;;;;;;5142420;27;19955;-62
2023/03/04 03:17:45;;;;;;;;;;;3.70;99.90;;;;;;5142465;27;19914;-62
2023/03/04 03:20:11;;;;;;;;;;;3.70;99.90;;;;;;5142101;27;20270;-62
2023/03/04 03:22:37;;;;;;;;;;;3.70;99.90;;;;;;5141952;27;19907;-62
2023/03/04 03:25:03;;;;;;;;;;;3.70;99.90;;;;;;5142060;27;19967;-63
2023/03/04 03:27:29;;;;;;;;;;;3.70;99.90;;;;;;5141834;27;19953;-62
2023/03/04 03:29:55;;;;;;;;;;;3.60;99.90;;;;;;5140520;27;19919;-62
2023/03/04 03:32:20;;;;;;;;;;;3.60;99.90;;;;;;5142156;27;19961;-62
2023/03/04 03:34:46;;;;;;;;;;;3.70;99.90;;;;;;5141939;27;19907;-62
2023/03/04 03:37:12;;;;;;;;;;;3.70;99.90;;;;;;5141608;27;19961;-62
2023/03/04 03:39:38;;;;;;;;;;;3.70;99.90;;;;;;5141602;27;19916;-62
2023/03/04 03:42:03;;;;;;;;;;;3.60;99.90;;;;;;5141426;27;19908;-62
2023/03/04 03:44:29;;;;;;;;;;;3.60;99.90;;;;;;5141573;27;19907;-64
2023/03/04 03:46:54;;;;;;;;;;;3.70;99.90;;;;;;5123087;27;19973;-64
2023/03/04 03:49:20;;;;;;;;;;;3.80;99.90;;;;;;5141471;27;19998;-64
2023/03/04 03:51:46;;;;;;;;;;;3.80;99.90;;;;;;5141599;27;19907;-64
2023/03/04 03:54:11;;;;;;;;;;;3.90;99.90;;;;;;5141285;27;19933;-64
2023/03/04 03:56:37;;;;;;;;;;;3.90;99.90;;;;;;5122665;27;19956;-64
2023/03/04 03:59:02;;;;;;;;;;;4.00;99.90;;;;;;5141366;27;20416;-65
2023/03/04 04:01:28;;;;;;;;;;;4.10;99.90;;;;;;5141638;27;20002;-64
2023/03/04 04:03:54;;;;;;;;;;;4.10;99.90;;;;;;5122676;27;19907;-64
2023/03/04 04:06:19;;;;;;;;;;;4.20;99.90;;;;;;5141337;27;20366;-64
2023/03/04 04:08:45;;;;;;;;;;;4.20;99.90;;;;;;5133260;27;19915;-64
2023/03/04 04:11:11;;;;;;;;;;;4.30;99.90;;;;;;5141409;27;19931;-64
2023/03/04 04:13:37;;;;;;;;;;;4.40;99.90;;;;;;5123822;27;19985;-64
2023/03/04 04:16:03;;;;;;;;;;;4.40;99.90;;;;;;5120735;28;19912;-64
2023/03/04 04:18:28;;;;;;;;;;;4.40;99.90;;;;;;5120230;28;19915;-62
2023/03/04 04:20:54;;;;;;;;;;;4.40;99.90;;;;;;5120657;28;19908;-62
2023/03/04 04:23:20;;;;;;;;;;;4.50;99.90;;;;;;5120099;28;20274;-62
2023/03/04 04:25:45;;;;;;;;;;;4.50;99.90;;;;;;5120346;28;20251;-62
2023/03/04 04:28:11;;;;;;;;;;;4.50;99.90;;;;;;5119825;28;19920;-62
2023/03/04 04:30:37;;;;;;;;;;;4.50;99.90;;;;;;5119969;28;19912;-62
2023/03/04 04:33:03;;;;;;;;;;;4.60;99.90;;;;;;5120265;28;19908;-62
2023/03/04 04:35:30;;;;;;;;;;;4.60;99.90;;;;;;5119787;28;19912;-62
2023/03/04 04:37:56;;;;;;;;;;;4.60;99.90;;;;;;5120190;28;19908;-62
2023/03/04 04:40:21;;;;;;;;;;;4.60;99.90;;;;;;5119849;28;19908;-62
2023/03/04 04:42:47;;;;;;;;;;;4.70;99.90;;;;;;5120000;28;19943;-62
2023/03/04 04:45:12;;;;;;;;;;;4.60;99.90;;;;;;5119597;28;20522;-62
2023/03/04 04:47:38;;;;;;;;;;;4.60;99.90;;;;;;5120101;28;19908;-62
2023/03/04 04:50:04;;;;;;;;;;;4.60;99.90;;;;;;5119515;28;19951;-62
2023/03/04 04:52:29;;;;;;;;;;;4.60;99.90;;;;;;5119494;28;19998;-62
2023/03/04 04:54:55;;;;;;;;;;;4.60;99.90;;;;;;5119408;28;19908;-62
2023/03/04 04:57:21;;;;;;;;;;;4.50;99.90;;;;;;5119528;28;19915;-62
2023/03/04 04:59:47;;;;;;;;;;;4.50;99.90;;;;;;5119401;28;19915;-62
2023/03/04 05:02:13;;;;;;;;;;;4.40;99.90;;;;;;5132993;27;19912;-62
2023/03/04 05:04:38;;;;;;;;;;;4.40;99.90;;;;;;5139910;27;19907;-62
2023/03/04 05:07:04;;;;;;;;;;;4.40;99.90;;;;;;5140141;27;19908;-62
2023/03/04 05:09:29;;;;;;;;;;;4.40;99.90;;;;;;5139722;27;19911;-62
2023/03/04 05:11:55;;;;;;;;;;;4.30;99.90;;;;;;5133112;27;20370;-62
2023/03/04 05:14:21;;;;;;;;;;;4.40;99.90;;;;;;5124460;27;19918;-62
2023/03/04 05:16:46;;;;;;;;;;;4.30;99.90;;;;;;5127325;27;20255;-62
2023/03/04 05:19:12;;;;;;;;;;;4.30;99.90;;;;;;5118889;28;19914;-63
2023/03/04 05:21:38;;;;;;;;;;;4.30;99.90;;;;;;5119058;28;19908;-62
2023/03/04 05:24:03;;;;;;;;;;;4.30;99.90;;;;;;5119139;28;19908;-62
2023/03/04 05:26:29;;;;;;;;;;;4.30;99.90;;;;;;5119169;28;19994;-62
2023/03/04 05:28:55;;;;;;;;;;;4.30;99.90;;;;;;5118646;28;19975;-63
2023/03/04 05:31:20;;;;;;;;;;;4.30;99.90;;;;;;5118835;28;19939;-62
2023/03/04 05:33:46;;;;;;;;;;;4.30;99.90;;;;;;5119444;28;19987;-62
2023/03/04 05:36:11;;;;;;;;;;;4.30;99.90;;;;;;5119031;28;19915;-62
2023/03/04 05:38:37;;;;;;;;;;;4.40;99.90;;;;;;5119143;28;19956;-62
2023/03/04 05:41:05;;;;;;;;;;;4.30;99.90;;;;;;5118796;28;20002;-62
2023/03/04 05:43:31;;;;;;;;;;;4.40;99.90;;;;;;5118933;28;19961;-62
2023/03/04 05:45:56;;;;;;;;;;;4.40;99.90;;;;;;5119125;28;19908;-62
2023/03/04 05:48:22;;;;;;;;;;;4.40;99.90;;;;;;5119018;28;19908;-62
2023/03/04 05:50:58;;;;;;;;;;;4.40;99.90;;;;;;5118956;28;20371;-62
2023/03/04 05:53:24;;;;;;;;;;;4.50;99.90;;;;;;5118115;28;19908;-62
2023/03/04 05:55:49;;;;;;;;;;;4.50;99.90;;;;;;5118748;28;19953;-63
2023/03/04 05:58:16;;;;;;;;;;;4.50;99.90;;;;;;5118658;28;19908;-62
2023/03/04 06:00:41;;;;;;;;;;;4.50;99.90;;;;;;5118668;28;19994;-63
2023/03/04 06:03:12;;;;;;;;;;;4.50;99.90;;;;;;5118576;28;19969;-62
2023/03/04 06:05:38;;;;;;;;;;;4.60;99.90;;;;;;5118929;28;19914;-62
2023/03/04 06:08:03;;;;;;;;;;;4.60;99.90;;;;;;5118808;28;19908;-63
2023/03/04 06:10:29;;;;;;;;;;;4.60;99.90;;;;;;5118533;28;19911;-63
2023/03/04 06:12:54;;;;;;;;;;;4.60;99.90;;;;;;5118000;28;19908;-63
2023/03/04 06:15:20;;;;;;;;;;;4.60;99.90;;;;;;5118161;28;20018;-63
2023/03/04 06:17:46;;;;;;;;;;;4.50;99.90;;;;;;5118207;28;19914;-63
2023/03/04 06:20:11;;;;;;;;;;;4.50;99.90;;;;;;5117972;28;19908;-63
2023/03/04 06:22:37;;;;;;;;;;;4.50;99.90;;;;;;5117946;28;19990;-63
2023/03/04 06:25:03;;;;;;;;;;;4.50;99.90;;;;;;5116851;28;19916;-63
2023/03/04 06:27:28;;;;;;;;;;;4.40;99.90;;;;;;5117691;28;19995;-63
2023/03/04 06:29:55;;;;;;;;;;;4.50;99.90;;;;;;5117090;28;19974;-63
2023/03/04 06:32:20;;;;;;;;;;;4.40;99.90;;;;;;5117459;28;19946;-63
2023/03/04 06:34:46;;;;;;;;;;;4.30;99.90;;;;;;5117833;28;19908;-63
2023/03/04 06:37:12;;;;;;;;;;;4.30;99.90;;;;;;5117617;28;19907;-63
2023/03/04 06:39:38;;;;;;;;;;;4.30;99.90;;;;;;5117940;28;20286;-63
2023/03/04 06:42:03;;;;;;;;;;;4.20;99.90;;;;;;5117727;28;19930;-63
2023/03/04 06:44:29;;;;;;;;;;;4.20;99.90;;;;;;5118146;28;19957;-62
2023/03/04 06:46:55;;;;;;;;;;;4.20;99.90;;;;;;5117616;28;19930;-63
2023/03/04 06:49:21;;;;;;;;;;;4.20;99.90;;;;;;5124504;28;20408;-63
2023/03/04 06:51:46;;;;;;;;;;;4.10;99.90;;;;;;5136448;28;19962;-63
2023/03/04 06:54:12;;;;;;;;;;;4.10;99.90;;;;;;5130643;28;19913;-63
2023/03/04 06:56:37;;;;;;;;;;;4.20;99.90;;;;;;5138123;28;20427;-63
2023/03/04 06:59:03;;;;;;;;;;;4.10;99.90;;;;;;5138434;28;19907;-63
2023/03/04 07:01:29;;;;;;;;;;;4.10;99.90;;;;;;5138286;28;19942;-63
2023/03/04 07:03:55;;;;;;;;;;;4.10;99.90;;;;;;5138239;27;20389;-63
2023/03/04 07:06:22;;;;;;;;;;;4.00;99.90;;;;;;5141925;27;20346;-63
2023/03/04 07:08:48;;;;;;;;;;;4.00;99.90;;;;;;5141812;27;19918;-63
2023/03/04 07:11:14;;;;;;;;;;;4.10;99.90;;;;;;5141978;27;19907;-63
2023/03/04 07:13:40;;;;;;;;;;;4.10;99.90;;;;;;5137214;27;20386;-63
2023/03/04 07:16:06;;;;;;;;;;;4.10;99.90;;;;;;5121258;28;19908;-63
2023/03/04 07:18:32;;;;;;;;;;;4.00;99.90;;;;;;5121222;28;20348;-63
2023/03/04 07:20:57;;;;;;;;;;;4.00;99.90;;;;;;5120865;28;19907;-63
2023/03/04 07:23:23;;;;;;;;;;;4.00;99.90;;;;;;5102310;28;19953;-63
2023/03/04 07:25:49;;;;;;;;;;;4.00;99.90;;;;;;5121255;28;19975;-63
2023/03/04 07:28:15;;;;;;;;;;;4.10;99.90;;;;;;5120682;28;19920;-63
2023/03/04 07:30:40;;;;;;;;;;;4.10;99.90;;;;;;5102302;28;20305;-63
2023/03/04 07:33:06;;;;;;;;;;;4.20;99.90;;;;;;5121079;27;19908;-63
2023/03/04 07:35:32;;;;;;;;;;;4.30;99.90;;;;;;5141269;27;19914;-63
2023/03/04 07:37:57;;;;;;;;;;;4.30;99.90;;;;;;5141201;27;19908;-63
2023/03/04 07:40:23;;;;;;;;;;;4.40;99.90;;;;;;5141424;27;19955;-63
2023/03/04 07:42:52;;;;;;;;;;;4.50;99.90;;;;;;5141543;27;19907;-63
2023/03/04 07:45:18;;;;;;;;;;;4.50;99.90;;;;;;5141008;27;20422;-62
2023/03/04 07:47:44;;;;;;;;;;;4.50;99.90;;;;;;5141069;27;19907;-63
2023/03/04 07:50:10;;;;;;;;;;;4.60;99.90;;;;;;5138799;27;19922;-63
2023/03/04 07:52:39;;;;;;;;;;;4.60;99.90;;;;;;5128493;27;19919;-63
2023/03/04 07:55:05;;;;;;;;;;;4.60;99.90;;;;;;5126979;27;19919;-63
2023/03/04 07:57:31;;;;;;;;;;;4.60;99.90;;;;;;5120353;28;19908;-63
2023/03/04 07:59:56;;;;;;;;;;;4.70;99.90;;;;;;5120131;28;20341;-63
2023/03/04 08:02:22;;;;;;;;;;;4.70;99.90;;;;;;5120015;28;19915;-63
2023/03/04 08:04:48;;;;;;;;;;;4.80;99.90;;;;;;5120573;27;20297;-63
2023/03/04 08:07:13;;;;;;;;;;;4.80;99.90;;;;;;5128811;27;19911;-63
2023/03/04 08:09:39;;;;;;;;;;;4.90;99.90;;;;;;5129648;27;19918;-63
2023/03/04 08:12:05;;;;;;;;;;;4.90;99.90;;;;;;5128790;27;19994;-63
2023/03/04 08:14:30;;;;;;;;;;;5.00;99.90;;;;;;5137371;27;20259;-63
2023/03/04 08:16:56;;;;;;;;;;;5.00;99.90;;;;;;5140011;27;19908;-63
2023/03/04 08:19:22;;;;;;;;;;;5.00;99.90;;;;;;5140062;27;19918;-63
2023/03/04 08:21:48;;;;;;;;;;;5.00;99.90;;;;;;5140343;27;20290;-64
2023/03/04 08:24:13;;;;;;;;;;;5.10;99.90;;;;;;5140094;27;19908;-63
2023/03/04 08:26:40;;;;;;;;;;;5.20;99.90;;;;;;5140420;27;19907;-63
2023/03/04 08:29:07;;;;;;;;;;;5.20;99.90;;;;;;5139576;27;19998;-63
2023/03/04 08:31:33;;;;;;;;;;;5.30;99.90;;;;;;5139946;27;19907;-63
2023/03/04 08:33:59;;;;;;;;;;;5.40;99.90;;;;;;5139784;27;19975;-63
2023/03/04 08:36:25;;;;;;;;;;;5.50;99.90;;;;;;5140210;27;19930;-63
2023/03/04 08:38:50;;;;;;;;;;;5.50;99.90;;;;;;5139873;27;19911;-63
2023/03/04 08:41:16;;;;;;;;;;;5.60;99.90;;;;;;5140258;27;20271;-63
2023/03/04 08:43:42;;;;;;;;;;;5.80;99.90;;;;;;5134144;27;19937;-63
2023/03/04 08:46:07;;;;;;;;;;;5.90;99.90;;;;;;5127992;27;19914;-63
2023/03/04 08:48:33;;;;;;;;;;;6.00;99.90;;;;;;5118677;28;19908;-64
2023/03/04 08:50:59;;;;;;;;;;;6.10;99.90;;;;;;5120325;27;19916;-63
2023/03/04 08:53:24;;;;;;;;;;;6.30;99.90;;;;;;5132334;27;19911;-63
2023/03/04 08:55:51;;;;;;;;;;;6.50;99.90;;;;;;5132611;27;19915;-63
2023/03/04 08:58:16;;;;;;;;;;;6.80;99.90;;;;;;5119370;27;19907;-63
2023/03/04 09:00:43;;;;;;;;;;;7.00;99.90;;;;;;5118341;28;19953;-63
2023/03/04 09:03:10;;;;;;;;;;;7.10;99.90;;;;;;5118855;28;19908;-64
2023/03/04 09:05:35;;;;;;;;;;;7.30;99.90;;;;;;5119218;28;19915;-63
2023/03/04 09:08:01;;;;;;;;;;;7.80;99.90;;;;;;5119169;28;19908;-63
2023/03/04 09:10:27;;;;;;;;;;;8.10;99.90;;;;;;5118666;28;19911;-64
2023/03/04 09:12:52;;;;;;;;;;;8.70;99.90;;;;;;5118831;28;19957;-63
2023/03/04 09:15:18;;;;;;;;;;;9.10;99.90;;;;;;5121555;27;19962;-64
2023/03/04 09:17:44;;;;;;;;;;;9.20;99.90;;;;;;5130740;27;19990;-63
2023/03/04 09:20:10;;;;;;;;;;;9.40;99.90;;;;;;5118596;28;19908;-63
2023/03/04 09:22:37;;;;;;;;;;;9.40;99.90;;;;;;5118916;28;19930;-63
2023/03/04 09:25:02;;;;;;;;;;;9.40;99.90;;;;;;5118833;28;20006;-63
2023/03/04 09:27:28;;;;;;;;;;;9.50;99.90;;;;;;5117768;28;19966;-63
2023/03/04 09:29:54;;;;;;;;;;;9.80;99.90;;;;;;5118055;28;19919;-63
2023/03/04 09:32:19;;;;;;;;;;;9.70;99.90;;;;;;5118199;28;19915;-63
2023/03/04 09:34:45;;;;;;;;;;;10.00;95.40;;;;;;5118568;28;19915;-63
2023/03/04 09:37:11;;;;;;;;;;;10.30;97.20;;;;;;5118295;28;19907;-64
2023/03/04 09:39:36;;;;;;;;;;;10.60;97.60;;;;;;5118742;28;20305;-64
2023/03/04 09:42:03;;;;;;;;;;;11.00;99.90;;;;;;5118418;28;20371;-64
2023/03/04 09:44:32;;;;;;;;;;;10.90;90.50;;;;;;5118552;28;19914;-64
2023/03/04 09:47:00;;;;;;;;;;;11.30;94.40;;;;;;5118351;28;19907;-64
2023/03/04 09:49:26;;;;;;;;;;;12.40;99.90;;;;;;5118629;28;19918;-64
2023/03/04 09:52:07;;;;;;;;;;;13.20;94.70;;;;;;5118174;28;19907;-64
2023/03/04 09:54:51;;;;;;;;;;;13.30;76.10;;;;;;5119099;28;19919;-64
2023/03/04 09:57:16;;;;;;;;;;;14.50;85.50;;;;;;5127038;28;19954;-64
2023/03/04 09:59:46;;;;;;;;;;;15.20;90.80;;;;;;5127605;28;19908;-64
2023/03/04 10:02:18;;;;;;;;;;;16.40;81.50;;;;;;5127517;28;20015;-64
2023/03/04 10:04:49;;;;;;;;;;;16.00;65.70;;;;;;5136156;28;19964;-64
2023/03/04 10:07:17;;;;;;;;;;;17.00;90.80;;;;;;5118764;28;19990;-64
2023/03/04 10:09:45;;;;;;;;;;;17.10;68.60;;;;;;5138083;28;19926;-64
2023/03/04 10:12:14;;;;;;;;;;;16.80;65.50;;;;;;5138529;28;19911;-64
2023/03/04 10:14:39;;;;;;;;;;;16.90;62.70;;;;;;5138758;28;19908;-64
2023/03/04 10:17:08;;;;;;;;;;;16.70;69.50;;;;;;5138466;28;19961;-64
2023/03/04 10:19:34;;;;;;;;;;;17.30;61.70;;;;;;5138389;28;19914;-64
2023/03/04 10:21:59;;;;;;;;;;;17.60;63.50;;;;;;5138625;28;19907;-64
2023/03/04 10:24:27;;;;;;;;;;;17.10;60.80;;;;;;5138598;28;20430;-64
2023/03/04 10:26:55;;;;;;;;;;;17.30;62.30;;;;;;5138272;28;19942;-64
2023/03/04 10:29:23;;;;;;;;;;;17.60;60.30;;;;;;5138160;28;19970;-64
2023/03/04 10:31:49;;;;;;;;;;;17.50;60.90;;;;;;5138785;28;19914;-64
2023/03/04 10:34:15;;;;;;;;;;;17.50;58.80;;;;;;5138000;28;19907;-64
2023/03/04 10:37:00;;;;;;;;;;;17.10;59.70;;;;;;5138015;28;19931;-64
2023/03/04 10:39:37;;;;;;;;;;;17.80;63.90;;;;;;5140544;27;19970;-64
2023/03/04 10:42:04;;;;;;;;;;;17.50;55.10;;;;;;5142108;27;19908;-64
2023/03/04 10:44:30;;;;;;;;;;;17.00;57.80;;;;;;5142405;27;19907;-64
2023/03/04 10:46:57;;;;;;;;;;;17.70;61.90;;;;;;5139063;27;19911;-64
2023/03/04 10:49:23;;;;;;;;;;;18.90;57.90;;;;;;5140987;27;19912;-64
2023/03/04 10:51:52;;;;;;;;;;;17.70;51.50;;;;;;5140522;27;19986;-64
2023/03/04 10:54:21;;;;;;;;;;;18.40;54.20;;;;;;5141556;27;20316;-64
2023/03/04 10:56:56;;;;;;;;;;;18.00;53.00;;;;;;5142088;27;19956;-64
2023/03/04 10:59:30;;;;;;;;;;;18.20;52.90;;;;;;5141990;27;19914;-64
2023/03/04 11:02:00;;;;;;;;;;;18.10;53.50;;;;;;5141567;27;19952;-64
2023/03/04 11:04:27;;;;;;;;;;;18.10;48.80;;;;;;5141756;27;19956;-64
2023/03/04 11:06:53;;;;;;;;;;;18.90;55.90;;;;;;5141711;27;20072;-64
2023/03/04 11:09:26;;;;;;;;;;;20.20;55.20;;;;;;5141543;27;19964;-64
2023/03/04 11:11:53;;;;;;;;;;;19.60;51.30;;;;;;5141843;27;19945;-64
2023/03/04 11:14:22;;;;;;;;;;;20.00;53.90;;;;;;5142012;27;20014;-64
2023/03/04 11:16:58;;;;;;;;;;;20.10;57.40;;;;;;5141620;27;19907;-64
2023/03/04 11:19:27;;;;;;;;;;;20.70;47.30;;;;;;5141903;27;20318;-64
2023/03/04 11:21:54;;;;;;;;;;;20.80;49.80;;;;;;5141488;27;19985;-64
2023/03/04 11:24:25;;;;;;;;;;;20.40;46.70;;;;;;5141430;27;19907;-64
2023/03/04 11:27:03;;;;;;;;;;;21.10;49.10;;;;;;5141390;27;19908;-64
2023/03/04 11:29:35;;;;;;;;;;;21.10;48.80;;;;;;5141038;27;19968;-64
2023/03/04 11:32:20;;;;;;;;;;;21.50;47.60;;;;;;5141213;27;20389;-64
2023/03/04 11:35:06;;;;;;;;;;;22.50;44.80;;;;;;5141464;27;19908;-64
2023/03/04 11:37:31;;;;;;;;;;;21.80;47.20;;;;;;5140522;27;19999;-64
2023/03/04 11:40:00;;;;;;;;;;;22.50;46.40;;;;;;5141320;27;19951;-64
2023/03/04 11:42:43;;;;;;;;;;;23.00;48.20;;;;;;5141012;27;19955;-64
2023/03/04 11:45:16;;;;;;;;;;;22.00;42.40;;;;;;5141017;27;19907;-64
2023/03/04 11:47:56;;;;;;;;;;;21.90;40.50;;;;;;5141171;27;20409;-64
2023/03/04 11:50:22;;;;;;;;;;;21.40;40.30;;;;;;5140325;27;20354;-64
2023/03/04 11:52:59;;;;;;;;;;;21.50;42.40;;;;;;5141358;27;19930;-64
2023/03/04 11:55:35;;;;;;;;;;;21.10;41.00;;;;;;5140915;27;19908;-64
2023/03/04 11:58:07;;;;;;;;;;;21.50;41.30;;;;;;5140720;27;19908;-64
2023/03/04 12:00:51;;;;;;;;;;;21.30;39.80;;;;;;5122371;27;19907;-65
2023/03/04 12:03:25;;;;;;;;;;;20.80;39.10;;;;;;5140682;27;19907;-64
2023/03/04 12:06:09;;;;;;;;;;;21.50;43.70;;;;;;5140960;27;20002;-64
2023/03/04 12:08:35;;;;;;;;;;;21.40;39.30;;;;;;5140770;27;19933;-64
2023/03/04 12:11:01;;;;;;;;;;;20.10;39.50;;;;;;5140349;27;19916;-65
2023/03/04 12:13:53;;;;;;;;;;;19.80;39.10;;;;;;5140773;27;19914;-65
2023/03/04 12:16:25;;;;;;;;;;;19.20;41.10;;;;;;5108710;27;19932;-64
2023/03/04 12:19:09;;;;;;;;;;;18.60;41.20;;;;;;5140035;27;19912;-64
2023/03/04 12:21:38;;;;;;;;;;;18.70;41.80;;;;;;5121692;27;19907;-64
2023/03/04 12:24:07;;;;;;;;;;;19.60;41.70;;;;;;5140450;27;20346;-64
2023/03/04 12:26:38;;;;;;;;;;;20.30;42.10;;;;;;5140112;27;20320;-65
2023/03/04 12:29:22;;;;;;;;;;;20.40;41.00;;;;;;5139865;27;19919;-64
2023/03/04 12:32:14;;;;;;;;;;;20.70;42.30;;;;;;5140041;27;19915;-64
2023/03/04 12:34:46;;;;;;;;;;;20.90;40.00;;;;;;5135826;27;19914;-64
2023/03/04 12:37:24;;;;;;;;;;;21.10;40.00;;;;;;5140098;27;19918;-64
2023/03/04 12:39:59;;;;;;;;;;;20.60;39.40;;;;;;5139606;27;19907;-64
2023/03/04 12:42:35;;;;;;;;;;;20.50;42.00;;;;;;5139941;27;19907;-64
2023/03/04 12:45:24;;;;;;;;;;;21.70;41.00;;;;;;5139851;27;19912;-64
2023/03/04 12:47:55;;;;;;;;;;;20.80;39.10;;;;;;5139820;27;19932;-64
2023/03/04 12:50:28;;;;;;;;;;;21.50;39.70;;;;;;5139568;27;19938;-64
2023/03/04 12:53:04;;;;;;;;;;;21.80;37.90;;;;;;5139603;27;19913;-64
2023/03/04 12:55:35;;;;;;;;;;;22.10;40.00;;;;;;5139344;27;19989;-64
2023/03/04 12:58:01;;;;;;;;;;;22.30;39.80;;;;;;5121067;27;19911;-64
2023/03/04 13:00:33;;;;;;;;;;;21.50;37.90;;;;;;5139547;27;20393;-64
2023/03/04 13:02:58;;;;;;;;;;;21.30;37.50;;;;;;5139433;27;20356;-64
2023/03/04 13:05:30;;;;;;;;;;;21.00;37.20;;;;;;5139636;27;19907;-64
2023/03/04 13:08:14;;;;;;;;;;;20.20;35.60;;;;;;5139763;27;19912;-64
2023/03/04 13:10:39;;;;;;;;;;;20.20;38.70;;;;;;5139463;27;19911;-64
2023/03/04 13:13:25;;;;;;;;;;;20.20;36.90;;;;;;5139782;27;20003;-64
2023/03/04 13:16:00;;;;;;;;;;;20.40;38.70;;;;;;5139618;27;19956;-64
2023/03/04 13:18:26;;;;;;;;;;;20.10;36.70;;;;;;5139150;27;19908;-64
2023/03/04 13:21:04;;;;;;;;;;;20.30;38.30;;;;;;5139597;27;19914;-64
2023/03/04 13:23:31;;;;;;;;;;;20.70;38.10;;;;;;5139518;27;19914;-65
2023/03/04 13:25:56;;;;;;;;;;;21.20;39.00;;;;;;5139383;27;19937;-64
2023/03/04 13:28:27;;;;;;;;;;;21.80;37.80;;;;;;5139174;27;19922;-64
2023/03/04 13:30:55;;;;;;;;;;;21.00;37.20;;;;;;5139442;27;20002;-64
2023/03/04 13:33:23;;;;;;;;;;;21.90;38.10;;;;;;5138346;27;21305;-64
2023/03/04 13:35:49;;;;;;;;;;;22.10;35.90;;;;;;5139170;27;19939;-64
2023/03/04 13:38:24;;;;;;;;;;;21.30;36.20;;;;;;5139203;27;20362;-64
2023/03/04 13:41:05;;;;;;;;;;;20.30;35.90;;;;;;5139247;27;19907;-64
2023/03/04 13:43:39;;;;;;;;;;;20.10;36.90;;;;;;5138970;27;19991;-64
2023/03/04 13:46:17;;;;;;;;;;;20.10;37.60;;;;;;5139133;27;19908;-64
2023/03/04 13:48:59;;;;;;;;;;;19.80;36.00;;;;;;5138759;27;20262;-64
2023/03/04 13:51:35;;;;;;;;;;;19.10;36.30;;;;;;5139104;27;19907;-64
2023/03/04 13:54:04;;;;;;;;;;;18.90;38.50;;;;;;5138917;28;19961;-64
2023/03/04 13:56:40;;;;;;;;;;;18.40;36.10;;;;;;5139025;28;19907;-64
2023/03/04 13:59:06;;;;;;;;;;;17.80;37.50;;;;;;5139285;28;19912;-64
2023/03/04 14:01:33;;;;;;;;;;;17.70;37.50;;;;;;5138828;28;19914;-64
2023/03/04 14:04:00;;;;;;;;;;;17.30;37.10;;;;;;5138804;28;20354;-64
2023/03/04 14:06:27;;;;;;;;;;;17.40;37.90;;;;;;5139243;28;19908;-64
2023/03/04 14:08:53;;;;;;;;;;;17.70;38.40;;;;;;5138713;28;19908;-64
2023/03/04 14:11:30;;;;;;;;;;;18.50;38.80;;;;;;5138782;28;19943;-64
2023/03/04 14:13:56;;;;;;;;;;;18.70;38.20;;;;;;5140524;27;19972;-64
2023/03/04 14:16:24;;;;;;;;;;;19.70;38.30;;;;;;5143218;27;20258;-64
2023/03/04 14:18:57;;;;;;;;;;;19.90;38.00;;;;;;5142835;27;19915;-64
2023/03/04 14:21:23;;;;;;;;;;;20.10;37.30;;;;;;5142726;27;19908;-64
2023/03/04 14:23:58;;;;;;;;;;;20.10;36.30;;;;;;5142935;27;19913;-64
2023/03/04 14:26:24;;;;;;;;;;;18.70;35.90;;;;;;5142738;27;20458;-64
2023/03/04 14:28:51;;;;;;;;;;;19.20;36.30;;;;;;5142515;27;19938;-64
2023/03/04 14:31:18;;;;;;;;;;;19.10;36.50;;;;;;5142499;27;20421;-64